Time;durP1;ratioP1;P1;durP2;ratioP2;P2;SDS_P1;SDS_P2;PMS_P1;PMS_P2;Temp;Humidity;BMP_temperature;BMP_pressure;BME280_temperature;BME280_humidity;BME280_pressure;Samples;Min_cycle;Max_cycle;Signal;HPM_P1;HPM_P2
2021/08/09 00:01:01;;;;;;;3.97;2.13;;;;;;;12.18;95.16;99173.91;5045840;28;20041;-66
2021/08/09 00:03:26;;;;;;;5.68;1.60;;;;;;;12.07;95.03;99164.44;5045924;28;20028;-66
2021/08/09 00:05:52;;;;;;;4.90;2.00;;;;;;;12.02;94.74;99161.88;5045857;28;20212;-66
2021/08/09 00:08:18;;;;;;;6.78;1.80;;;;;;;11.97;95.05;99147.03;5045817;28;20029;-66
2021/08/09 00:10:44;;;;;;;8.80;2.20;;;;;;;12.03;94.75;99158.38;5045810;28;20021;-66
2021/08/09 00:13:09;;;;;;;3.30;1.50;;;;;;;12.06;94.99;99155.66;5045790;28;20077;-66
2021/08/09 00:15:35;;;;;;;8.70;1.88;;;;;;;11.93;94.64;99148.84;5045729;28;20017;-67
2021/08/09 00:18:00;;;;;;;3.33;1.70;;;;;;;11.97;94.94;99142.63;5045691;28;20024;-67
2021/08/09 00:20:25;;;;;;;7.10;2.40;;;;;;;11.91;94.84;99147.13;5045652;28;20052;-67
2021/08/09 00:22:51;;;;;;;3.47;1.98;;;;;;;11.89;95.04;99144.53;5045619;28;20017;-67
2021/08/09 00:25:16;;;;;;;6.15;1.98;;;;;;;11.83;94.69;99131.44;5045543;28;20320;-67
2021/08/09 00:27:42;;;;;;;4.82;2.08;;;;;;;11.81;94.77;99159.63;5044287;28;20269;-67
2021/08/09 00:30:08;;;;;;;3.95;2.00;;;;;;;11.84;94.73;99192.97;5045480;28;20071;-67
2021/08/09 00:32:35;;;;;;;7.18;2.03;;;;;;;11.75;94.48;99201.03;5045369;28;20071;-67
2021/08/09 00:35:00;;;;;;;3.47;1.65;;;;;;;11.68;94.56;99255.59;5045408;28;20026;-67
2021/08/09 00:37:26;;;;;;;10.18;2.00;;;;;;;11.77;94.55;99225.63;5045305;28;20029;-67
2021/08/09 00:39:51;;;;;;;3.15;1.65;;;;;;;11.70;94.02;99231.84;5045250;28;20018;-66
2021/08/09 00:42:17;;;;;;;3.45;1.70;;;;;;;11.55;94.22;99232.91;5044087;28;20048;-66
2021/08/09 00:44:43;;;;;;;2.30;1.48;;;;;;;11.61;94.28;99238.09;5045224;28;20036;-66
2021/08/09 00:47:09;;;;;;;16.70;1.90;;;;;;;11.60;94.50;99246.91;5045138;28;20028;-66
2021/08/09 00:49:35;;;;;;;3.80;2.03;;;;;;;11.62;95.04;99242.53;5043840;28;20033;-66
2021/08/09 00:52:01;;;;;;;5.60;1.85;;;;;;;11.58;94.99;99243.41;5045043;28;20087;-66
2021/08/09 00:54:27;;;;;;;7.03;2.05;;;;;;;11.58;95.00;99246.03;5045276;28;20391;-66
2021/08/09 00:56:53;;;;;;;8.90;1.80;;;;;;;11.61;94.89;99256.56;5044910;28;20021;-66
2021/08/09 00:59:18;;;;;;;4.78;1.70;;;;;;;11.63;94.66;99299.63;5044932;28;20022;-66
2021/08/09 01:01:44;;;;;;;4.63;1.77;;;;;;;11.65;94.44;99275.88;5044656;28;20240;-66
2021/08/09 01:04:10;;;;;;;4.60;1.83;;;;;;;11.56;93.72;99271.59;5047111;28;20033;-66
2021/08/09 01:06:37;;;;;;;4.00;1.90;;;;;;;11.48;94.27;99276.06;5064735;28;20075;-66
2021/08/09 01:09:26;;;;;;;2.97;1.60;;;;;;;11.53;94.28;99282.16;5063855;28;20029;-66
2021/08/09 01:12:06;;;;;;;4.13;1.80;;;;;;;11.37;94.47;99291.16;5076487;28;20013;-66
2021/08/09 01:14:50;;;;;;;9.75;2.08;;;;;;;11.38;94.79;99281.47;5064602;28;20052;-66
2021/08/09 01:17:18;;;;;;;2.53;1.48;;;;;;;11.38;95.05;99292.88;5064494;28;20357;-66
2021/08/09 01:20:02;;;;;;;6.65;1.60;;;;;;;11.43;95.14;99304.25;5064496;28;20058;-66
2021/08/09 01:22:46;;;;;;;5.63;2.17;;;;;;;11.40;94.98;99311.31;5064520;28;20025;-66
2021/08/09 01:25:48;;;;;;;3.92;1.67;;;;;;;11.55;94.73;99359.44;5064438;28;20024;-66
2021/08/09 01:28:14;;;;;;;8.40;2.10;;;;;;;11.50;94.65;99329.66;5064304;28;20032;-66
2021/08/09 01:30:41;;;;;;;4.40;2.25;;;;;;;11.47;94.68;99329.69;5064302;28;20304;-66
2021/08/09 01:33:09;;;;;;;3.33;1.67;;;;;;;11.53;94.31;99336.66;5064237;28;20027;-66
2021/08/09 01:35:36;;;;;;;6.78;1.90;;;;;;;11.52;94.96;99416.63;5064195;28;20312;-66
2021/08/09 01:38:03;;;;;;;5.43;2.08;;;;;;;11.45;94.74;99470.31;5063033;28;20271;-66
2021/08/09 01:40:30;;;;;;;8.18;2.00;;;;;;;11.38;94.62;99456.31;5062987;28;20024;-66
2021/08/09 01:42:57;;;;;;;6.38;2.38;;;;;;;11.46;94.60;99454.50;5064150;28;20213;-66
2021/08/09 01:45:23;;;;;;;4.75;1.60;;;;;;;11.40;94.41;99433.47;5064095;28;20025;-66
2021/08/09 01:47:50;;;;;;;4.45;1.80;;;;;;;11.46;94.08;99436.03;5063979;28;20268;-66
2021/08/09 01:50:16;;;;;;;4.32;1.50;;;;;;;11.33;93.88;99389.56;5064033;28;20088;-66
2021/08/09 01:52:43;;;;;;;4.82;1.58;;;;;;;11.19;94.12;99378.31;5062878;28;20024;-66
2021/08/09 01:55:11;;;;;;;2.80;1.60;;;;;;;11.14;94.29;99377.50;5063949;28;20315;-66
2021/08/09 01:57:37;;;;;;;5.50;1.85;;;;;;;11.11;94.51;99403.00;5063935;28;20373;-67
2021/08/09 02:00:07;;;;;;;2.35;1.60;;;;;;;11.14;94.68;99381.88;5063735;28;20040;-66
2021/08/09 02:02:33;;;;;;;3.65;1.90;;;;;;;11.14;94.83;99372.22;5063797;28;20028;-66
2021/08/09 02:05:09;;;;;;;2.92;1.65;;;;;;;11.15;94.87;99368.69;5054736;28;20021;-66
2021/08/09 02:07:37;;;;;;;6.55;1.85;;;;;;;11.12;94.46;99368.72;5043900;28;20025;-66
2021/08/09 02:10:07;;;;;;;6.97;2.08;;;;;;;11.14;94.91;99351.16;5043657;28;20037;-66
2021/08/09 02:12:39;;;;;;;3.70;1.70;;;;;;;11.21;94.38;99358.09;5043804;28;20022;-66
2021/08/09 02:15:05;;;;;;;3.22;1.80;;;;;;;11.17;94.34;99324.75;5043845;28;20058;-66
2021/08/09 02:17:40;;;;;;;5.45;1.80;;;;;;;11.17;94.12;99324.75;5043781;28;20324;-66
2021/08/09 02:20:23;;;;;;;5.50;2.35;;;;;;;11.28;94.55;99422.13;5045792;28;20018;-66
2021/08/09 02:22:52;;;;;;;6.72;1.88;;;;;;;11.27;94.55;99372.97;5047896;28;20024;-66
2021/08/09 02:25:23;;;;;;;9.30;1.50;;;;;;;11.33;94.41;99384.31;5047800;28;20060;-66
2021/08/09 02:28:01;;;;;;;7.75;2.10;;;;;;;11.34;94.40;99393.97;5047605;28;20052;-66
2021/08/09 02:30:28;;;;;;;2.28;1.60;;;;;;;11.36;94.54;99389.53;5047740;28;20028;-66
2021/08/09 02:32:58;;;;;;;5.00;1.75;;;;;;;11.36;94.48;99389.53;5046519;28;20064;-66
2021/08/09 02:35:25;;;;;;;5.30;2.00;;;;;;;11.35;94.18;99393.06;5047915;28;20021;-66
2021/08/09 02:37:51;;;;;;;5.97;1.52;;;;;;;11.41;94.35;99393.00;5046634;28;20017;-66
2021/08/09 02:40:19;;;;;;;4.50;1.40;;;;;;;11.46;93.99;99401.75;5047515;28;20017;-66
2021/08/09 02:42:45;;;;;;;2.70;2.00;;;;;;;11.56;94.24;99407.78;5047488;28;20021;-66
2021/08/09 02:45:11;;;;;;;3.28;1.80;;;;;;;11.54;94.31;99426.25;5047599;28;20308;-66
2021/08/09 02:47:38;;;;;;;4.32;1.52;;;;;;;11.59;93.97;99440.28;5047400;28;20021;-66
2021/08/09 02:50:05;;;;;;;4.35;1.60;;;;;;;11.58;94.25;99448.22;5047251;28;20037;-66
2021/08/09 02:52:32;;;;;;;6.03;1.75;;;;;;;11.54;94.20;99459.66;5047266;28;20320;-66
2021/08/09 02:55:00;;;;;;;3.10;1.92;;;;;;;11.56;94.42;99474.59;5047232;28;20216;-66
2021/08/09 02:57:27;;;;;;;3.15;1.63;;;;;;;11.64;94.27;99528.16;5047204;28;20087;-66
2021/08/09 02:59:54;;;;;;;8.05;1.48;;;;;;;11.65;93.42;99498.28;5046955;28;20025;-66
2021/08/09 03:02:20;;;;;;;2.63;1.73;;;;;;;11.65;93.80;99495.63;5047078;28;20021;-66
2021/08/09 03:04:46;;;;;;;4.28;2.08;;;;;;;11.67;93.77;99491.19;5046988;28;20017;-66
2021/08/09 03:07:13;;;;;;;7.97;2.03;;;;;;;11.75;93.74;99470.91;5047016;28;20093;-66
2021/08/09 03:09:40;;;;;;;6.75;1.70;;;;;;;11.67;94.03;99480.66;5045738;28;20209;-66
2021/08/09 03:12:06;;;;;;;5.60;1.88;;;;;;;11.64;94.06;99480.69;5046944;28;20052;-66
2021/08/09 03:14:32;;;;;;;3.50;2.00;;;;;;;11.68;94.13;99479.75;5046914;28;20172;-66
2021/08/09 03:17:02;;;;;;;5.30;2.08;;;;;;;11.77;94.17;99492.84;5046848;28;20049;-66
2021/08/09 03:19:29;;;;;;;8.95;1.88;;;;;;;11.70;94.05;99480.63;5045661;28;20342;-66
2021/08/09 03:21:56;;;;;;;12.48;1.88;;;;;;;11.82;94.24;99475.22;5046762;28;20021;-66
2021/08/09 03:24:23;;;;;;;6.25;1.70;;;;;;;11.78;94.13;99468.25;5046702;28;20200;-66
2021/08/09 03:26:49;;;;;;;3.80;1.42;;;;;;;11.73;94.10;99470.03;5046647;28;20321;-66
2021/08/09 03:29:15;;;;;;;4.20;1.80;;;;;;;11.83;94.27;99432.13;5046536;28;20025;-66
2021/08/09 03:31:40;;;;;;;4.82;1.50;;;;;;;11.80;94.46;99408.41;5045779;28;20026;-66
2021/08/09 03:34:06;;;;;;;3.13;2.05;;;;;;;11.80;94.62;99402.28;5046502;28;20018;-66
2021/08/09 03:36:32;;;;;;;4.72;2.08;;;;;;;11.83;94.65;99408.38;5046451;28;20124;-66
2021/08/09 03:38:58;;;;;;;5.35;1.83;;;;;;;11.86;94.52;99403.06;5046484;28;20017;-66
2021/08/09 03:41:23;;;;;;;5.03;1.80;;;;;;;11.90;94.91;99420.59;5046406;28;20257;-66
2021/08/09 03:43:49;;;;;;;6.25;1.83;;;;;;;11.86;94.34;99466.38;5046212;28;20044;-66
2021/08/09 03:46:14;;;;;;;6.18;1.73;;;;;;;11.72;94.32;99441.94;5067723;28;20051;-66
2021/08/09 03:48:40;;;;;;;3.55;1.60;;;;;;;11.76;93.97;99414.63;5046446;28;20318;-66
2021/08/09 03:51:06;;;;;;;8.85;2.13;;;;;;;11.75;93.94;99404.97;5064851;28;20025;-66
2021/08/09 03:53:31;;;;;;;5.18;1.67;;;;;;;11.79;94.12;99382.06;5065221;28;20320;-66
2021/08/09 03:55:56;;;;;;;6.32;2.03;;;;;;;11.79;94.25;99368.88;5065175;28;20334;-66
2021/08/09 03:58:22;;;;;;;4.45;1.77;;;;;;;11.83;94.59;99366.19;5064688;28;20088;-66
2021/08/09 04:00:48;;;;;;;8.48;2.10;;;;;;;11.91;94.94;99374.88;5064613;28;20336;-66
2021/08/09 04:03:13;;;;;;;8.70;2.10;;;;;;;11.95;95.05;99376.56;5064722;28;20051;-66
2021/08/09 04:05:39;;;;;;;4.13;1.98;;;;;;;11.90;94.79;99373.09;5065001;28;20024;-66
2021/08/09 04:08:04;;;;;;;2.00;1.60;;;;;;;11.83;94.48;99386.44;5064871;28;20025;-66
2021/08/09 04:10:30;;;;;;;8.38;1.83;;;;;;;11.77;93.96;99382.06;5065956;28;20033;-66
2021/08/09 04:12:55;;;;;;;8.77;1.80;;;;;;;11.68;94.38;99350.53;5064801;28;20021;-66
2021/08/09 04:15:21;;;;;;;5.18;1.52;;;;;;;11.66;94.47;99347.06;5047098;28;20217;-66
2021/08/09 04:17:46;;;;;;;15.02;2.20;;;;;;;11.68;94.58;99344.41;5056952;28;20041;-66
2021/08/09 04:20:12;;;;;;;8.95;2.40;;;;;;;11.63;94.86;99404.22;5045687;28;20025;-66
2021/08/09 04:22:37;;;;;;;5.82;1.85;;;;;;;11.63;95.06;99384.00;5045668;28;20209;-66
2021/08/09 04:25:03;;;;;;;8.85;1.80;;;;;;;11.60;94.99;99349.75;5044463;28;20285;-66
2021/08/09 04:27:29;;;;;;;7.03;1.98;;;;;;;11.65;94.92;99352.34;5045580;28;20051;-66
2021/08/09 04:29:54;;;;;;;2.53;1.63;;;;;;;11.52;94.46;99333.13;5045437;28;20026;-66
2021/08/09 04:32:20;;;;;;;4.97;2.00;;;;;;;11.40;94.63;99332.41;5045473;28;20033;-66
2021/08/09 04:34:46;;;;;;;3.75;2.08;;;;;;;11.34;95.32;99328.09;5045384;28;20022;-66
2021/08/09 04:37:12;;;;;;;5.60;2.72;;;;;;;11.37;95.56;99428.22;5045345;28;20029;-66
2021/08/09 04:39:38;;;;;;;4.85;1.65;;;;;;;11.40;95.27;99396.56;5045304;28;20048;-66
2021/08/09 04:42:04;;;;;;;6.03;1.77;;;;;;;11.39;95.16;99426.41;5045177;28;20032;-66
2021/08/09 04:44:30;;;;;;;2.60;1.80;;;;;;;11.44;94.84;99466.78;5044242;28;20021;-66
2021/08/09 04:46:57;;;;;;;5.72;1.90;;;;;;;11.46;94.57;99472.94;5045192;28;20029;-66
2021/08/09 04:49:23;;;;;;;10.90;1.85;;;;;;;11.46;94.49;99490.50;5045033;28;20072;-66
2021/08/09 04:51:49;;;;;;;5.20;1.60;;;;;;;11.43;94.46;99499.31;5045315;28;20021;-66
2021/08/09 04:54:14;;;;;;;6.57;2.05;;;;;;;11.48;94.62;99494.88;5045011;28;20032;-66
2021/08/09 04:56:39;;;;;;;4.57;1.70;;;;;;;11.57;94.20;99507.97;5045037;28;20025;-66
2021/08/09 04:59:05;;;;;;;4.30;1.55;;;;;;;11.59;93.97;99486.84;5044924;28;20021;-66
2021/08/09 05:01:30;;;;;;;8.38;2.05;;;;;;;11.51;93.94;99499.22;5044794;28;20100;-66
2021/08/09 05:03:56;;;;;;;2.42;1.70;;;;;;;11.51;93.67;99502.75;5044760;28;20085;-66
2021/08/09 05:06:22;;;;;;;2.55;1.60;;;;;;;11.49;93.68;99528.28;5044820;28;20307;-66
2021/08/09 05:08:47;;;;;;;3.58;1.80;;;;;;;11.51;94.16;99530.88;5043293;28;20029;-66
2021/08/09 05:11:13;;;;;;;8.98;2.25;;;;;;;11.60;94.22;99521.13;5044306;28;20087;-67
2021/08/09 05:13:38;;;;;;;11.38;2.05;;;;;;;11.64;94.21;99512.31;5043488;28;20029;-67
2021/08/09 05:16:04;;;;;;;5.28;1.55;;;;;;;11.79;93.85;99532.41;5044648;28;20048;-67
2021/08/09 05:18:30;;;;;;;9.20;2.00;;;;;;;12.27;92.96;99490.50;5044574;28;20025;-67
2021/08/09 05:20:55;;;;;;;4.85;1.90;;;;;;;13.14;90.81;99455.81;5043361;28;20388;-67
2021/08/09 05:23:21;;;;;;;4.55;1.42;;;;;;;13.84;88.35;99456.28;5044511;28;20031;-67
2021/08/09 05:25:46;;;;;;;12.48;1.33;;;;;;;14.33;85.15;99447.34;5044466;28;20032;-67
2021/08/09 05:28:11;;;;;;;11.63;1.40;;;;;;;14.85;82.93;99433.81;5044334;28;20139;-67
2021/08/09 05:30:37;;;;;;;2.40;1.20;;;;;;;15.14;80.05;99402.16;5044418;28;20044;-67
2021/08/09 05:33:04;;;;;;;2.45;1.23;;;;;;;14.77;79.99;99386.28;5044400;28;20025;-67
2021/08/09 05:35:30;;;;;;;7.22;1.33;;;;;;;15.30;80.44;99403.50;5044325;28;20252;-67
2021/08/09 05:37:55;;;;;;;2.72;1.05;;;;;;;16.00;78.68;99411.31;5044303;28;20025;-67
2021/08/09 05:40:21;;;;;;;4.43;1.30;;;;;;;16.52;76.93;99419.50;5044213;28;20044;-67
2021/08/09 05:42:50;;;;;;;3.17;0.75;;;;;;;17.05;75.06;99425.75;5044205;28;20025;-67
2021/08/09 05:45:16;;;;;;;2.38;1.05;;;;;;;17.24;73.94;99414.47;5044127;28;20033;-67
2021/08/09 05:47:42;;;;;;;1.90;1.05;;;;;;;17.20;73.54;99410.19;5042963;28;20047;-67
2021/08/09 05:50:08;;;;;;;2.85;1.40;;;;;;;17.41;73.82;99403.25;5044064;28;20268;-67
2021/08/09 05:52:33;;;;;;;5.20;1.25;;;;;;;18.08;72.45;99418.59;5044146;28;20044;-67
2021/08/09 05:55:07;;;;;;;6.43;1.15;;;;;;;18.49;71.17;99422.41;5043718;28;20017;-67
2021/08/09 05:57:32;;;;;;;2.08;1.10;;;;;;;18.52;71.07;99408.94;5044129;28;20427;-67
2021/08/09 05:59:58;;;;;;;3.33;1.02;;;;;;;18.46;71.49;99394.06;5044046;28;20021;-67
2021/08/09 06:02:23;;;;;;;4.03;1.08;;;;;;;18.88;71.23;99404.81;5044108;28;20029;-67
2021/08/09 06:04:49;;;;;;;5.47;0.90;;;;;;;19.52;68.28;99416.41;5044110;28;20076;-67
2021/08/09 06:07:16;;;;;;;4.45;1.05;;;;;;;19.29;68.88;99384.47;5043999;28;20025;-67
2021/08/09 06:09:44;;;;;;;2.17;1.08;;;;;;;20.01;67.52;99395.47;5044146;28;20040;-67
2021/08/09 06:12:11;;;;;;;2.20;1.00;;;;;;;20.53;66.16;99400.16;5042989;28;20313;-67
2021/08/09 06:14:37;;;;;;;1.15;0.88;;;;;;;20.66;64.61;99385.25;5044134;28;20384;-67
2021/08/09 06:17:04;;;;;;;2.85;1.10;;;;;;;20.37;64.30;99387.56;5044225;28;20029;-67
2021/08/09 06:19:30;;;;;;;2.17;1.00;;;;;;;20.69;63.34;99374.41;5044146;28;20024;-67
2021/08/09 06:21:56;;;;;;;2.85;1.13;;;;;;;20.54;65.98;99372.47;5044060;28;20025;-67
2021/08/09 06:24:22;;;;;;;5.93;1.20;;;;;;;21.46;63.42;99383.97;5044197;28;20085;-67
2021/08/09 06:26:48;;;;;;;3.53;1.20;;;;;;;21.91;63.00;99407.50;5044194;28;20273;-67
2021/08/09 06:29:14;;;;;;;11.00;1.42;;;;;;;22.08;62.92;99399.47;5044001;28;20244;-67
2021/08/09 06:31:39;;;;;;;2.55;1.63;;;;;;;21.91;63.10;99396.78;5044140;28;20031;-67
2021/08/09 06:34:05;;;;;;;7.60;1.73;;;;;;;22.23;62.18;99382.53;5043987;28;20026;-67
2021/08/09 06:36:30;;;;;;;4.15;1.10;;;;;;;22.83;62.37;99398.81;5043753;28;20253;-67
2021/08/09 06:38:55;;;;;;;3.17;1.17;;;;;;;23.03;61.25;99392.28;5043863;28;20032;-67
2021/08/09 06:41:24;;;;;;;7.90;1.38;;;;;;;23.76;58.46;99399.59;5043943;28;20071;-67
2021/08/09 06:43:49;;;;;;;5.60;1.20;;;;;;;24.46;57.30;99397.00;5043611;28;20048;-67
2021/08/09 06:46:16;;;;;;;5.03;1.27;;;;;;;24.96;54.34;99411.66;5043764;28;20025;-67
2021/08/09 06:48:41;;;;;;;10.60;1.15;;;;;;;24.81;53.40;99371.41;5043618;28;20029;-67
2021/08/09 06:51:07;;;;;;;3.67;1.40;;;;;;;24.91;51.69;99373.41;5043591;28;20025;-67
2021/08/09 06:53:32;;;;;;;6.55;1.23;;;;;;;25.44;51.80;99377.06;5043637;28;20021;-67
2021/08/09 06:55:57;;;;;;;4.28;1.40;;;;;;;25.25;51.39;99362.09;5043525;28;20307;-67
2021/08/09 06:58:23;;;;;;;3.72;1.27;;;;;;;25.82;52.51;99594.66;5043478;28;20028;-67
2021/08/09 07:00:48;;;;;;;4.10;1.13;;;;;;;24.71;52.27;99478.81;5043322;28;20045;-68
2021/08/09 07:03:16;;;;;;;2.38;0.98;;;;;;;24.81;51.57;99409.94;5043371;28;20376;-67
2021/08/09 07:05:43;;;;;;;5.13;1.08;;;;;;;25.40;51.75;99391.72;5043418;28;20017;-67
2021/08/09 07:08:09;;;;;;;7.30;1.10;;;;;;;25.84;50.95;99393.09;5046607;28;20313;-67
2021/08/09 07:10:35;;;;;;;5.78;1.10;;;;;;;25.71;51.62;99353.59;5047033;28;20017;-67
2021/08/09 07:13:00;;;;;;;6.28;1.85;;;;;;;25.98;50.39;99352.59;5046966;28;20040;-67
2021/08/09 07:15:25;;;;;;;4.43;1.30;;;;;;;25.90;50.59;99343.25;5046931;28;20075;-67
2021/08/09 07:17:51;;;;;;;2.83;1.08;;;;;;;26.14;49.85;99331.63;5046871;28;20094;-67
2021/08/09 07:20:16;;;;;;;7.20;1.20;;;;;;;26.62;49.58;99327.25;5046857;28;20017;-67
2021/08/09 07:22:43;;;;;;;4.38;1.10;;;;;;;26.14;47.28;99310.03;5046794;28;20083;-67
2021/08/09 07:25:10;;;;;;;9.95;1.60;;;;;;;26.83;49.34;99333.78;5046770;28;20021;-67
2021/08/09 07:27:35;;;;;;;5.80;1.17;;;;;;;27.32;47.32;99323.72;5046692;28;20059;-67
2021/08/09 07:30:04;;;;;;;3.45;0.90;;;;;;;27.42;45.90;99330.13;5046598;28;20306;-67
2021/08/09 07:32:29;;;;;;;6.32;1.30;;;;;;;27.45;47.64;99308.25;5046639;28;20021;-67
2021/08/09 07:34:54;;;;;;;5.53;1.20;;;;;;;27.55;46.97;99303.88;5046551;28;20020;-67
2021/08/09 07:37:20;;;;;;;3.88;1.10;;;;;;;27.84;46.82;99297.03;5046520;28;20032;-67
2021/08/09 07:39:45;;;;;;;3.95;1.30;;;;;;;27.52;46.99;99278.91;5046537;28;20423;-67
2021/08/09 07:42:10;;;;;;;3.70;1.23;;;;;;;27.51;45.98;99280.75;5046435;28;20021;-67
2021/08/09 07:44:36;;;;;;;2.35;1.10;;;;;;;27.90;45.45;99409.41;5046403;28;20018;-67
2021/08/09 07:47:01;;;;;;;5.32;1.15;;;;;;;27.87;46.08;99299.53;5045189;28;20025;-69
2021/08/09 07:49:27;;;;;;;3.88;1.17;;;;;;;27.80;46.87;99279.31;5046187;28;20309;-68
2021/08/09 07:51:52;;;;;;;3.80;1.15;;;;;;;27.88;46.42;99266.09;5046247;28;20071;-68
2021/08/09 07:54:20;;;;;;;5.07;1.05;;;;;;;28.30;46.22;99264.47;5046209;28;20044;-68
2021/08/09 07:56:45;;;;;;;5.30;1.33;;;;;;;28.01;47.91;99263.25;5046177;28;20028;-68
2021/08/09 07:59:11;;;;;;;7.63;1.52;;;;;;;28.40;46.14;99266.31;5046205;28;20040;-68
2021/08/09 08:01:36;;;;;;;4.88;1.60;;;;;;;28.03;45.00;99254.03;5045920;28;20104;-68
2021/08/09 08:04:02;;;;;;;5.75;1.00;;;;;;;27.94;45.23;99246.66;5045919;28;20037;-68
2021/08/09 08:06:27;;;;;;;6.60;1.10;;;;;;;27.93;43.93;99260.31;5045962;28;20052;-68
2021/08/09 08:08:53;;;;;;;5.68;1.20;;;;;;;28.16;44.80;99249.34;5044694;28;20032;-68
2021/08/09 08:11:18;;;;;;;4.88;1.30;;;;;;;28.33;44.72;99246.13;5045877;28;20064;-68
2021/08/09 08:13:43;;;;;;;5.10;1.40;;;;;;;28.36;46.64;99243.19;5045869;28;20021;-68
2021/08/09 08:16:10;;;;;;;7.03;1.63;;;;;;;28.67;45.90;99253.22;5045840;28;20026;-68
2021/08/09 08:18:35;;;;;;;6.32;1.42;;;;;;;28.98;43.99;99249.66;5045486;28;20018;-68
2021/08/09 08:21:01;;;;;;;3.35;1.02;;;;;;;28.34;45.19;99233.44;5045721;28;20267;-68
2021/08/09 08:23:26;;;;;;;7.65;1.42;;;;;;;28.57;46.66;99230.59;5045626;28;20021;-68
2021/08/09 08:25:52;;;;;;;2.83;1.08;;;;;;;28.54;43.73;99220.00;5045679;28;20021;-68
2021/08/09 08:28:18;;;;;;;5.32;1.60;;;;;;;28.98;44.84;99237.97;5045465;28;20025;-68
2021/08/09 08:30:44;;;;;;;3.72;1.10;;;;;;;29.00;44.20;99234.13;5045533;28;20032;-68
2021/08/09 08:33:09;;;;;;;9.07;1.45;;;;;;;28.47;44.86;99215.25;5045500;28;20025;-68
2021/08/09 08:35:35;;;;;;;5.25;1.13;;;;;;;27.88;47.91;99202.97;5045551;28;20025;-68
2021/08/09 08:38:00;;;;;;;5.63;1.27;;;;;;;28.33;46.89;99238.00;5045411;28;20079;-68
2021/08/09 08:40:26;;;;;;;3.55;1.20;;;;;;;28.30;46.01;99246.38;5045347;28;20324;-68
2021/08/09 08:42:53;;;;;;;4.57;1.58;;;;;;;28.79;44.36;99252.19;5045334;28;20025;-68
2021/08/09 08:45:23;;;;;;;3.47;1.20;;;;;;;29.26;45.84;99250.91;5045217;28;20033;-68
2021/08/09 08:47:49;;;;;;;5.35;1.48;;;;;;;27.46;45.81;99191.00;5045217;28;20021;-68
2021/08/09 08:50:19;;;;;;;4.13;1.52;;;;;;;26.82;45.09;99188.84;5045076;28;20079;-68
2021/08/09 08:52:47;;;;;;;2.45;1.02;;;;;;;27.59;44.28;99213.41;5045187;28;20194;-68
2021/08/09 08:55:15;;;;;;;6.15;0.98;;;;;;;27.81;45.99;99196.31;5045025;28;20021;-68
2021/08/09 08:57:41;;;;;;;4.43;1.10;;;;;;;28.38;44.61;99200.56;5044981;28;20275;-68
2021/08/09 09:00:07;;;;;;;3.42;0.90;;;;;;;29.39;43.81;99234.47;5044879;28;20025;-68
2021/08/09 09:02:35;;;;;;;5.57;1.10;;;;;;;26.92;44.77;99179.06;5043735;28;20343;-68
2021/08/09 09:05:18;;;;;;;3.90;1.42;;;;;;;28.14;45.04;99197.19;5044857;28;20021;-68
2021/08/09 09:07:58;;;;;;;4.00;1.13;;;;;;;28.86;44.02;99204.59;5044840;28;20041;-68
2021/08/09 09:10:29;;;;;;;2.97;1.00;;;;;;;29.18;43.52;99201.91;5043629;28;20044;-68
2021/08/09 09:13:05;;;;;;;4.93;1.42;;;;;;;29.90;43.89;99219.06;5044762;28;20067;-68
2021/08/09 09:15:30;;;;;;;3.22;1.10;;;;;;;28.85;46.94;99181.22;5044717;28;20028;-68
2021/08/09 09:17:56;;;;;;;4.20;1.23;;;;;;;28.20;45.37;99161.50;5044630;28;20017;-68
2021/08/09 09:20:26;;;;;;;5.35;1.27;;;;;;;28.88;42.00;99172.81;5044636;28;20017;-68
2021/08/09 09:22:53;;;;;;;7.22;1.20;;;;;;;27.74;44.05;99139.13;5043441;28;20025;-68
2021/08/09 09:25:39;;;;;;;3.65;0.90;;;;;;;27.22;44.84;99128.03;5044545;28;20025;-67
2021/08/09 09:28:24;;;;;;;5.32;1.00;;;;;;;27.88;44.42;99147.03;5044202;28;20037;-67
2021/08/09 09:30:50;;;;;;;5.38;0.88;;;;;;;28.15;44.58;99133.91;5043897;28;20033;-67
2021/08/09 09:33:16;;;;;;;4.22;0.80;;;;;;;27.09;46.13;99109.19;5044416;28;20228;-67
2021/08/09 09:35:42;;;;;;;3.90;1.20;;;;;;;27.32;46.41;99123.66;5043220;28;20048;-67
2021/08/09 09:38:07;;;;;;;4.45;1.20;;;;;;;27.72;48.61;99138.41;5043200;28;20197;-67
2021/08/09 09:40:42;;;;;;;4.57;1.13;;;;;;;27.65;49.82;99126.34;5044278;28;20025;-67
2021/08/09 09:43:16;;;;;;;4.22;0.98;;;;;;;27.59;49.30;99121.44;5044279;28;20032;-67
2021/08/09 09:45:53;;;;;;;5.20;1.42;;;;;;;26.65;50.99;99094.75;5043049;28;20361;-67
2021/08/09 09:48:32;;;;;;;4.35;1.23;;;;;;;25.19;53.61;99076.88;5044149;28;20030;-67
2021/08/09 09:51:27;;;;;;;6.28;1.15;;;;;;;25.89;53.80;99099.63;5044134;28;20093;-67
2021/08/09 09:53:52;;;;;;;2.75;1.00;;;;;;;26.64;51.12;99114.66;5043957;28;20359;-67
2021/08/09 09:56:20;;;;;;;6.57;1.30;;;;;;;26.88;48.04;99107.31;5042918;28;20096;-67
2021/08/09 09:58:46;;;;;;;4.00;1.05;;;;;;;26.82;49.14;99102.41;5044057;28;20025;-67
2021/08/09 10:01:11;;;;;;;4.53;1.35;;;;;;;26.68;49.25;99110.72;5043847;28;20113;-67
2021/08/09 10:03:38;;;;;;;3.08;1.27;;;;;;;26.13;53.40;99089.72;5044009;28;20025;-68
2021/08/09 10:06:04;;;;;;;6.43;1.27;;;;;;;26.05;49.03;99132.63;5043937;28;20014;-68
2021/08/09 10:08:44;;;;;;;8.15;1.40;;;;;;;25.08;51.79;99117.19;5043845;28;20025;-68
2021/08/09 10:11:10;;;;;;;7.20;1.52;;;;;;;25.43;52.79;99132.75;5043875;28;20321;-68
2021/08/09 10:13:37;;;;;;;4.78;1.42;;;;;;;26.16;50.97;99143.47;5043855;28;20339;-68
2021/08/09 10:16:05;;;;;;;5.38;1.60;;;;;;;26.11;50.02;99136.69;5043869;28;20025;-68
2021/08/09 10:18:33;;;;;;;4.47;1.50;;;;;;;25.33;52.49;99115.47;5043818;28;20085;-68
2021/08/09 10:21:05;;;;;;;7.95;1.50;;;;;;;24.83;53.47;99101.03;5042589;28;20035;-68
2021/08/09 10:23:37;;;;;;;7.50;1.58;;;;;;;24.69;55.54;99090.38;5043858;28;20028;-68
2021/08/09 10:26:05;;;;;;;7.00;1.90;;;;;;;25.71;53.05;99122.53;5044046;28;20017;-68
2021/08/09 10:28:55;;;;;;;5.28;1.80;;;;;;;26.50;50.07;99144.50;5043648;28;20021;-68
2021/08/09 10:31:30;;;;;;;4.13;1.30;;;;;;;26.97;49.91;99145.31;5043663;28;20029;-68
2021/08/09 10:33:57;;;;;;;5.93;1.73;;;;;;;27.78;48.57;99154.16;5044007;28;20380;-68
2021/08/09 10:36:23;;;;;;;10.10;1.80;;;;;;;27.97;43.44;99165.19;5043656;28;20075;-68
2021/08/09 10:38:53;;;;;;;5.82;1.63;;;;;;;27.85;45.69;99225.75;5043613;28;20332;-68
2021/08/09 10:41:33;;;;;;;6.85;2.15;;;;;;;27.47;45.19;99160.28;5045818;28;20021;-68
2021/08/09 10:44:02;;;;;;;7.00;2.00;;;;;;;27.28;44.83;99143.81;5047496;28;20048;-68
2021/08/09 10:46:37;;;;;;;5.25;1.30;;;;;;;27.49;46.06;99152.91;5047465;28;20029;-68
2021/08/09 10:49:03;;;;;;;5.70;2.13;;;;;;;27.21;48.25;99127.16;5047328;28;20029;-68
2021/08/09 10:51:50;;;;;;;4.25;1.70;;;;;;;26.17;46.19;99104.72;5047388;28;20029;-68
2021/08/09 10:54:33;;;;;;;4.88;1.52;;;;;;;26.18;47.70;99105.56;5047304;28;20021;-68
2021/08/09 10:57:00;;;;;;;6.35;1.80;;;;;;;26.11;45.81;99098.91;5047319;28;20033;-68
2021/08/09 10:59:38;;;;;;;4.00;1.50;;;;;;;25.98;48.21;99093.59;5047287;28;20216;-68
2021/08/09 11:02:05;;;;;;;6.63;1.90;;;;;;;25.47;49.49;99083.03;5047367;28;20041;-68
2021/08/09 11:04:31;;;;;;;8.85;1.77;;;;;;;25.09;50.99;99078.50;5047168;28;20244;-68
2021/08/09 11:06:56;;;;;;;6.60;1.60;;;;;;;25.01;51.61;99080.91;5047113;28;20063;-68
2021/08/09 11:09:35;;;;;;;4.65;1.77;;;;;;;24.80;53.18;99071.63;5047042;28;20096;-68
2021/08/09 11:12:23;;;;;;;5.90;1.65;;;;;;;24.53;52.82;99056.50;5047040;28;20022;-68
2021/08/09 11:15:01;;;;;;;4.20;1.73;;;;;;;25.10;51.88;99066.78;5047025;28;20021;-68
2021/08/09 11:17:29;;;;;;;7.95;1.63;;;;;;;24.61;52.79;99046.91;5046921;28;20025;-68
2021/08/09 11:20:13;;;;;;;5.90;1.65;;;;;;;24.53;52.18;99046.59;5046873;28;20253;-68
2021/08/09 11:22:39;;;;;;;6.78;1.80;;;;;;;24.02;55.63;99047.47;5045704;28;20096;-68
2021/08/09 11:25:24;;;;;;;3.95;1.60;;;;;;;23.29;54.84;99026.34;5046746;28;20025;-68
2021/08/09 11:28:23;;;;;;;6.47;1.77;;;;;;;23.48;52.94;99032.25;5045583;28;20030;-68
2021/08/09 11:30:58;;;;;;;7.00;1.60;;;;;;;24.26;52.78;99056.56;5046094;28;20104;-68
2021/08/09 11:33:29;;;;;;;5.78;1.30;;;;;;;24.84;52.99;99064.19;5046635;28;20021;-68
2021/08/09 11:36:16;;;;;;;3.90;1.20;;;;;;;25.16;51.32;99060.94;5046650;28;20205;-68
2021/08/09 11:38:42;;;;;;;5.13;1.55;;;;;;;25.26;50.68;99051.25;5046397;28;20038;-68